Time;durP1;ratioP1;P1;durP2;ratioP2;P2;SDS_P1;SDS_P2;PMS_P1;PMS_P2;Temp;Humidity;BMP_temperature;BMP_pressure;BME280_temperature;BME280_humidity;BME280_pressure;Samples;Min_cycle;Max_cycle;Signal;HPM_P1;HPM_P2
2023/06/17 00:00:09;;;;;;;5.00;3.33;;;24.10;51.50;;;;;;5033665;28;20104;-74
2023/06/17 00:02:35;;;;;;;5.63;3.45;;;24.00;51.60;;;;;;5015819;28;20471;-74
2023/06/17 00:05:02;;;;;;;4.30;3.25;;;24.10;51.70;;;;;;5033579;28;20056;-75
2023/06/17 00:07:28;;;;;;;3.33;2.83;;;24.00;52.30;;;;;;5033960;28;20136;-74
2023/06/17 00:09:54;;;;;;;8.93;3.17;;;24.00;51.70;;;;;;5032252;28;20033;-74
2023/06/17 00:12:21;;;;;;;3.90;3.10;;;24.00;51.80;;;;;;5033563;28;20026;-74
2023/06/17 00:14:47;;;;;;;4.28;2.90;;;24.00;51.80;;;;;;5033458;28;20061;-73
2023/06/17 00:17:14;;;;;;;4.07;3.33;;;24.00;51.80;;;;;;5015510;28;20091;-74
2023/06/17 00:19:40;;;;;;;3.58;2.80;;;24.00;51.90;;;;;;5032253;28;20029;-74
2023/06/17 00:22:08;;;;;;;4.75;3.53;;;24.00;51.80;;;;;;5033423;28;20021;-74
2023/06/17 00:24:34;;;;;;;4.63;3.22;;;23.90;51.70;;;;;;5032075;28;20057;-74
2023/06/17 00:27:00;;;;;;;4.90;3.40;;;23.90;51.70;;;;;;5033282;28;20033;-74
2023/06/17 00:29:25;;;;;;;5.55;3.33;;;23.90;51.80;;;;;;5015346;28;20032;-73
2023/06/17 00:31:51;;;;;;;3.22;2.92;;;23.90;51.80;;;;;;5032143;28;20029;-74
2023/06/17 00:34:17;;;;;;;3.85;3.20;;;23.90;51.80;;;;;;5034288;28;20030;-74
2023/06/17 00:36:42;;;;;;;5.00;3.30;;;23.90;51.80;;;;;;5037125;28;20021;-74
2023/06/17 00:39:08;;;;;;;4.53;3.17;;;23.90;51.90;;;;;;5037235;28;20101;-75
2023/06/17 00:41:34;;;;;;;3.67;3.10;;;23.90;51.90;;;;;;5019311;28;20033;-74
2023/06/17 00:44:00;;;;;;;3.78;3.15;;;23.90;51.90;;;;;;5035766;28;20029;-73
2023/06/17 00:46:39;;;;;;;3.58;2.95;;;24.00;51.90;;;;;;5036734;28;20025;-74
2023/06/17 00:49:06;;;;;;;4.70;3.30;;;24.00;51.90;;;;;;5019229;28;20021;-74
2023/06/17 00:51:33;;;;;;;4.13;3.30;;;24.00;51.90;;;;;;5018903;28;20033;-74
2023/06/17 00:54:02;;;;;;;4.70;3.38;;;23.90;51.80;;;;;;5037091;28;20349;-74
2023/06/17 00:56:31;;;;;;;3.70;3.15;;;23.90;51.80;;;;;;5036556;28;20068;-74
2023/06/17 00:58:57;;;;;;;3.50;3.13;;;23.90;51.80;;;;;;5019248;28;20029;-74
2023/06/17 01:01:24;;;;;;;4.25;3.60;;;23.90;51.90;;;;;;5036662;28;20494;-75
2023/06/17 01:03:51;;;;;;;3.50;2.88;;;23.90;51.90;;;;;;5036688;28;20029;-74
2023/06/17 01:06:28;;;;;;;3.75;3.33;;;23.90;52.00;;;;;;5036740;28;20136;-74
2023/06/17 01:09:02;;;;;;;3.65;3.03;;;23.90;52.00;;;;;;5018778;28;20025;-74
2023/06/17 01:11:30;;;;;;;3.88;3.47;;;23.80;52.00;;;;;;5036655;28;20423;-74
2023/06/17 01:13:57;;;;;;;3.95;3.25;;;23.80;52.00;;;;;;5036565;28;20030;-74
2023/06/17 01:16:25;;;;;;;3.60;3.28;;;23.90;52.10;;;;;;5018887;28;20429;-74
2023/06/17 01:18:52;;;;;;;3.22;2.72;;;23.80;52.10;;;;;;5018501;28;20384;-74
2023/06/17 01:21:22;;;;;;;3.33;3.00;;;23.80;52.10;;;;;;5018400;28;20502;-74
2023/06/17 01:23:52;;;;;;;3.95;3.17;;;23.80;52.10;;;;;;5036302;28;20464;-73
2023/06/17 01:26:19;;;;;;;3.33;2.97;;;23.80;52.10;;;;;;5018968;28;20114;-74
2023/06/17 01:28:45;;;;;;;3.30;2.97;;;23.70;52.10;;;;;;5018418;28;20029;-74
2023/06/17 01:31:12;;;;;;;4.45;3.00;;;23.70;52.10;;;;;;5018217;28;20391;-73
2023/06/17 01:33:41;;;;;;;4.18;3.50;;;23.70;52.10;;;;;;5018450;28;20471;-74
2023/06/17 01:36:07;;;;;;;4.03;3.30;;;23.70;52.10;;;;;;5036110;28;20420;-73
2023/06/17 01:38:45;;;;;;;4.28;3.38;;;23.70;52.10;;;;;;5035771;28;20083;-73
2023/06/17 01:41:37;;;;;;;3.58;2.60;;;23.70;52.10;;;;;;5036264;28;20037;-74
2023/06/17 01:44:04;;;;;;;3.70;3.20;;;23.70;52.10;;;;;;5018199;28;20111;-74
2023/06/17 01:46:30;;;;;;;4.57;3.20;;;23.70;52.10;;;;;;5035585;28;20117;-74
2023/06/17 01:48:56;;;;;;;3.95;3.08;;;23.70;52.10;;;;;;5018103;28;20033;-73
2023/06/17 01:51:22;;;;;;;3.50;3.13;;;23.70;52.10;;;;;;5035695;28;20037;-74
2023/06/17 01:53:48;;;;;;;5.93;3.90;;;23.70;52.00;;;;;;5017893;28;20025;-74
2023/06/17 01:56:14;;;;;;;4.93;3.40;;;23.70;52.00;;;;;;5035869;28;20045;-74
2023/06/17 01:58:40;;;;;;;3.90;3.35;;;23.70;52.00;;;;;;5035633;28;20418;-74
2023/06/17 02:01:05;;;;;;;4.40;3.30;;;23.80;52.00;;;;;;5035550;28;20034;-73
2023/06/17 02:03:31;;;;;;;4.18;3.60;;;23.80;51.90;;;;;;5034051;28;20487;-74
2023/06/17 02:05:57;;;;;;;4.38;3.58;;;23.80;51.90;;;;;;5035478;28;20377;-73
2023/06/17 02:08:23;;;;;;;4.30;3.25;;;23.80;51.90;;;;;;5035416;28;20101;-74
2023/06/17 02:10:49;;;;;;;4.60;3.80;;;23.80;51.90;;;;;;5035271;28;20116;-74
2023/06/17 02:13:15;;;;;;;4.05;3.53;;;23.80;51.90;;;;;;5035246;28;20025;-74
2023/06/17 02:15:42;;;;;;;4.13;3.30;;;23.80;51.80;;;;;;5035014;28;20034;-73
2023/06/17 02:18:12;;;;;;;6.43;3.67;;;23.80;51.70;;;;;;5035295;28;20061;-73
2023/06/17 02:20:38;;;;;;;4.53;3.60;;;23.80;51.60;;;;;;5035392;28;20036;-74
2023/06/17 02:23:04;;;;;;;5.38;4.10;;;23.90;51.60;;;;;;5035158;28;20380;-74
2023/06/17 02:25:30;;;;;;;4.63;3.65;;;23.80;51.60;;;;;;5017664;28;20382;-74
2023/06/17 02:27:55;;;;;;;4.18;3.78;;;23.90;51.60;;;;;;5035078;28;20156;-74
2023/06/17 02:30:21;;;;;;;4.03;3.25;;;23.90;51.50;;;;;;5034630;28;20112;-73
2023/06/17 02:32:47;;;;;;;4.25;3.50;;;23.90;51.50;;;;;;5035070;28;20028;-74
2023/06/17 02:35:13;;;;;;;4.03;3.50;;;23.90;51.40;;;;;;5035580;28;20025;-74
2023/06/17 02:37:40;;;;;;;5.43;3.92;;;23.90;51.40;;;;;;5035181;28;20108;-74
2023/06/17 02:40:08;;;;;;;5.35;4.05;;;23.90;51.30;;;;;;5034851;28;20483;-74
2023/06/17 02:42:37;;;;;;;4.45;3.60;;;23.90;51.30;;;;;;5017080;28;20383;-74
2023/06/17 02:45:04;;;;;;;5.07;3.60;;;24.00;51.40;;;;;;5034696;28;20040;-73
2023/06/17 02:47:30;;;;;;;4.80;3.92;;;23.90;51.30;;;;;;5034744;28;20113;-74
2023/06/17 02:49:56;;;;;;;4.80;4.07;;;24.00;51.30;;;;;;5034286;28;20103;-74
2023/06/17 02:52:21;;;;;;;4.90;3.65;;;24.00;51.30;;;;;;5034640;28;20022;-74
2023/06/17 02:54:47;;;;;;;4.63;3.55;;;24.00;51.30;;;;;;5033071;28;20083;-74
2023/06/17 02:57:13;;;;;;;4.72;3.80;;;24.00;51.30;;;;;;5033950;28;20033;-74
2023/06/17 02:59:38;;;;;;;5.32;3.70;;;24.00;51.30;;;;;;5034177;28;20025;-74
2023/06/17 03:02:04;;;;;;;6.10;3.53;;;24.00;51.40;;;;;;5034403;28;20029;-74
2023/06/17 03:04:34;;;;;;;5.55;3.55;;;24.10;51.40;;;;;;5033906;28;20025;-73
2023/06/17 03:07:04;;;;;;;4.47;3.60;;;24.10;51.40;;;;;;5016571;28;20053;-74
2023/06/17 03:09:30;;;;;;;4.90;3.60;;;24.20;51.40;;;;;;5017238;28;20087;-74
2023/06/17 03:11:58;;;;;;;4.22;3.50;;;24.20;51.30;;;;;;5034103;28;20038;-72
2023/06/17 03:14:24;;;;;;;4.03;3.60;;;24.30;51.30;;;;;;5034261;28;20030;-73
2023/06/17 03:16:50;;;;;;;5.85;3.53;;;24.20;51.20;;;;;;5034421;28;20111;-74
2023/06/17 03:19:16;;;;;;;4.35;3.60;;;24.30;51.20;;;;;;5034068;28;20059;-74
2023/06/17 03:21:42;;;;;;;4.45;3.80;;;24.30;51.00;;;;;;5034052;28;20037;-74
2023/06/17 03:24:09;;;;;;;5.13;3.70;;;24.30;51.00;;;;;;5034148;28;20037;-74
2023/06/17 03:26:35;;;;;;;4.28;3.30;;;24.40;51.10;;;;;;5033958;28;20030;-74
2023/06/17 03:29:02;;;;;;;4.72;3.75;;;24.40;51.00;;;;;;5034023;28;20091;-73
2023/06/17 03:31:28;;;;;;;5.47;3.50;;;24.40;51.10;;;;;;5033650;28;20064;-74
2023/06/17 03:33:53;;;;;;;4.90;3.42;;;24.40;51.10;;;;;;5032765;28;20033;-74
2023/06/17 03:36:24;;;;;;;4.13;3.42;;;24.40;51.00;;;;;;5033958;28;20025;-74
2023/06/17 03:38:51;;;;;;;4.93;3.85;;;24.40;51.00;;;;;;5033822;28;20033;-74
2023/06/17 03:41:16;;;;;;;3.75;3.15;;;24.40;51.00;;;;;;5033622;28;20026;-74
2023/06/17 03:43:43;;;;;;;4.78;3.83;;;24.40;51.10;;;;;;5033827;28;20473;-74
2023/06/17 03:46:08;;;;;;;4.28;3.50;;;24.40;51.10;;;;;;5034000;28;20025;-74
2023/06/17 03:48:35;;;;;;;4.50;3.35;;;24.40;51.20;;;;;;5033641;28;20032;-74
2023/06/17 03:51:02;;;;;;;4.97;3.60;;;24.40;51.20;;;;;;5015955;28;20040;-74
2023/06/17 03:53:28;;;;;;;4.07;3.10;;;24.40;51.20;;;;;;5015940;28;20029;-74
2023/06/17 03:55:54;;;;;;;5.57;3.47;;;24.40;51.20;;;;;;5033291;28;20053;-73
2023/06/17 03:58:20;;;;;;;3.53;3.08;;;24.40;51.20;;;;;;5016551;28;20034;-73
2023/06/17 04:00:47;;;;;;;4.30;3.60;;;24.40;51.20;;;;;;5033742;28;20383;-73
2023/06/17 04:03:13;;;;;;;6.85;3.65;;;24.40;51.20;;;;;;5015939;28;20132;-74
2023/06/17 04:05:40;;;;;;;4.25;3.65;;;24.40;51.30;;;;;;5033503;28;20419;-73
2023/06/17 04:08:06;;;;;;;4.82;3.80;;;24.40;51.40;;;;;;5034261;28;20026;-74
2023/06/17 04:10:32;;;;;;;4.78;3.90;;;24.50;51.40;;;;;;5037276;28;20136;-73
2023/06/17 04:12:58;;;;;;;5.22;3.70;;;24.50;51.20;;;;;;5037652;28;20105;-74
2023/06/17 04:15:23;;;;;;;4.63;3.42;;;24.50;51.20;;;;;;5020092;28;20033;-73
2023/06/17 04:17:49;;;;;;;4.80;3.30;;;24.50;51.20;;;;;;5037929;28;20187;-73
2023/06/17 04:20:15;;;;;;;3.88;3.33;;;24.60;51.30;;;;;;5037416;28;20124;-74
2023/06/17 04:22:42;;;;;;;5.03;3.70;;;24.60;51.20;;;;;;5037511;28;20025;-74
2023/06/17 04:25:15;;;;;;;4.57;3.55;;;24.60;51.10;;;;;;5019361;28;20052;-75
2023/06/17 04:27:41;;;;;;;4.57;3.90;;;24.70;51.10;;;;;;5019593;28;20084;-73
2023/06/17 04:30:10;;;;;;;6.15;4.03;;;24.70;51.00;;;;;;5037192;28;20033;-73
2023/06/17 04:32:38;;;;;;;4.15;3.10;;;24.70;50.90;;;;;;5019664;28;20032;-74
2023/06/17 04:35:05;;;;;;;5.25;3.53;;;24.70;50.90;;;;;;5019490;28;20455;-73
2023/06/17 04:37:32;;;;;;;6.05;3.28;;;24.70;51.40;;;;;;5036711;28;20025;-74
2023/06/17 04:39:59;;;;;;;3.13;2.80;;;24.70;50.80;;;;;;5019774;28;20383;-73
2023/06/17 04:42:25;;;;;;;4.18;3.40;;;24.70;50.70;;;;;;5019152;28;20026;-74
2023/06/17 04:44:51;;;;;;;3.60;3.10;;;24.70;50.80;;;;;;5036936;28;20112;-73
2023/06/17 04:47:19;;;;;;;3.03;2.70;;;24.70;50.80;;;;;;5036921;28;20371;-73
2023/06/17 04:49:47;;;;;;;5.55;3.17;;;24.70;50.70;;;;;;5036876;28;20036;-73
2023/06/17 04:52:13;;;;;;;4.40;3.30;;;24.70;50.70;;;;;;5037008;28;20036;-73
2023/06/17 04:54:39;;;;;;;3.63;3.13;;;24.60;50.60;;;;;;5037009;28;20045;-73
2023/06/17 04:57:06;;;;;;;4.68;3.40;;;24.70;50.70;;;;;;5018938;28;20041;-74
2023/06/17 04:59:32;;;;;;;3.53;2.80;;;24.70;50.60;;;;;;5036606;28;20029;-73
2023/06/17 05:01:57;;;;;;;4.78;3.55;;;24.70;50.60;;;;;;5036374;28;20090;-73
2023/06/17 05:04:23;;;;;;;3.67;3.28;;;24.80;50.60;;;;;;5036405;28;20029;-72
2023/06/17 05:06:49;;;;;;;3.83;3.25;;;24.80;50.60;;;;;;5036806;28;20057;-74
2023/06/17 05:09:14;;;;;;;3.88;3.20;;;24.90;50.60;;;;;;5036691;28;20376;-73
2023/06/17 05:11:42;;;;;;;4.18;3.30;;;24.90;50.50;;;;;;5036579;28;20112;-74
2023/06/17 05:14:08;;;;;;;5.03;3.30;;;24.90;50.40;;;;;;5036380;28;20021;-73
2023/06/17 05:16:33;;;;;;;4.93;2.92;;;24.90;50.30;;;;;;5036420;28;20028;-74
2023/06/17 05:18:59;;;;;;;4.43;3.38;;;25.00;50.20;;;;;;5035865;28;20040;-72
2023/06/17 05:21:25;;;;;;;4.30;3.60;;;25.00;50.20;;;;;;5033417;28;20033;-74
2023/06/17 05:23:50;;;;;;;4.50;3.55;;;25.00;50.20;;;;;;5035741;28;20101;-73
2023/06/17 05:26:17;;;;;;;3.10;2.65;;;25.00;50.10;;;;;;5035803;28;20524;-74
2023/06/17 05:28:42;;;;;;;3.75;3.20;;;25.10;50.10;;;;;;5035703;28;20026;-74
2023/06/17 05:31:10;;;;;;;4.40;3.22;;;25.10;50.10;;;;;;5035201;28;20527;-75
2023/06/17 05:33:36;;;;;;;3.08;2.80;;;25.10;50.00;;;;;;5017619;28;20113;-75
2023/06/17 05:36:02;;;;;;;4.60;3.47;;;25.10;50.10;;;;;;5035257;28;20396;-75
2023/06/17 05:38:28;;;;;;;2.92;2.63;;;25.20;50.10;;;;;;5035356;28;20025;-75
2023/06/17 05:40:54;;;;;;;2.53;2.33;;;25.20;49.90;;;;;;5035079;28;20030;-74
2023/06/17 05:43:20;;;;;;;3.85;3.20;;;25.20;49.80;;;;;;5014294;28;20490;-75
2023/06/17 05:45:45;;;;;;;2.90;2.47;;;25.20;49.80;;;;;;5015723;28;20105;-74
2023/06/17 05:48:12;;;;;;;3.17;2.67;;;25.30;49.80;;;;;;5015828;28;20026;-74
2023/06/17 05:50:38;;;;;;;4.15;3.17;;;25.30;49.80;;;;;;4998289;28;20125;-75
2023/06/17 05:53:04;;;;;;;3.25;2.80;;;25.30;49.70;;;;;;4998466;28;20456;-75
2023/06/17 05:55:30;;;;;;;3.42;3.13;;;25.30;49.70;;;;;;5015806;28;20034;-74
2023/06/17 05:57:56;;;;;;;5.18;3.60;;;25.40;49.70;;;;;;5015816;28;20030;-74
2023/06/17 06:00:22;;;;;;;3.35;2.67;;;25.40;49.70;;;;;;5014241;28;20460;-74
2023/06/17 06:02:48;;;;;;;4.40;3.40;;;25.40;49.70;;;;;;5015237;28;20030;-73
2023/06/17 06:05:14;;;;;;;4.80;3.55;;;25.40;49.60;;;;;;5015640;28;20065;-73
2023/06/17 06:07:41;;;;;;;5.18;3.20;;;25.50;49.60;;;;;;4997960;28;20042;-73
2023/06/17 06:10:07;;;;;;;3.70;3.30;;;25.50;49.60;;;;;;5015234;28;20025;-75
2023/06/17 06:12:35;;;;;;;3.58;3.00;;;25.50;49.60;;;;;;5015384;28;20042;-73
2023/06/17 06:15:00;;;;;;;4.10;3.05;;;25.50;49.50;;;;;;5015349;28;20026;-74
2023/06/17 06:17:26;;;;;;;3.05;2.70;;;25.50;49.40;;;;;;5034245;28;20026;-73
2023/06/17 06:19:52;;;;;;;4.20;3.20;;;25.50;49.20;;;;;;5035378;28;20032;-74
2023/06/17 06:22:18;;;;;;;3.95;3.10;;;25.50;49.20;;;;;;5035102;28;20083;-75
2023/06/17 06:24:44;;;;;;;3.60;3.08;;;25.60;49.30;;;;;;5035131;28;20029;-74
2023/06/17 06:27:09;;;;;;;3.75;3.17;;;25.60;49.40;;;;;;5034992;28;20083;-73
2023/06/17 06:29:35;;;;;;;2.95;2.58;;;25.50;49.30;;;;;;5017108;28;20117;-74
2023/06/17 06:32:02;;;;;;;4.13;2.90;;;25.60;49.30;;;;;;5016044;28;20037;-73
2023/06/17 06:34:28;;;;;;;3.10;2.47;;;25.60;49.20;;;;;;5034926;28;20030;-73
2023/06/17 06:36:56;;;;;;;4.75;3.35;;;25.60;49.20;;;;;;5016987;28;20500;-75
2023/06/17 06:39:22;;;;;;;3.65;2.95;;;25.60;49.10;;;;;;5034779;28;20045;-75
2023/06/17 06:41:48;;;;;;;3.83;3.00;;;25.60;49.00;;;;;;5035045;28;20080;-74
2023/06/17 06:44:13;;;;;;;3.30;3.00;;;25.60;49.00;;;;;;5034816;28;20022;-74
2023/06/17 06:46:39;;;;;;;3.50;2.97;;;25.70;49.00;;;;;;5034383;28;20033;-74
2023/06/17 06:49:05;;;;;;;3.50;2.88;;;25.60;48.90;;;;;;5034603;28;20028;-74
2023/06/17 06:51:31;;;;;;;3.55;3.03;;;25.70;49.00;;;;;;5016972;28;20034;-75
2023/06/17 06:53:56;;;;;;;3.33;3.00;;;25.70;49.10;;;;;;5034318;28;20069;-74
2023/06/17 06:56:22;;;;;;;5.07;2.78;;;25.60;49.10;;;;;;5034833;28;20431;-74
2023/06/17 06:58:48;;;;;;;4.00;3.10;;;25.60;49.00;;;;;;5034252;28;20026;-73
2023/06/17 07:01:13;;;;;;;5.40;2.83;;;25.70;49.00;;;;;;5033994;28;20419;-73
2023/06/17 07:03:39;;;;;;;3.22;2.60;;;25.70;49.00;;;;;;5034629;28;20053;-73
2023/06/17 07:06:05;;;;;;;3.75;3.17;;;25.70;48.80;;;;;;5033878;28;20073;-74
2023/06/17 07:08:31;;;;;;;3.72;3.20;;;25.80;48.80;;;;;;5034169;28;20037;-73
2023/06/17 07:10:56;;;;;;;4.05;2.65;;;25.80;48.60;;;;;;5033999;28;20030;-74
2023/06/17 07:13:22;;;;;;;4.68;3.38;;;25.90;48.50;;;;;;5033833;28;20391;-74
2023/06/17 07:15:48;;;;;;;4.20;3.20;;;25.90;48.50;;;;;;5007316;28;20056;-73
2023/06/17 07:18:13;;;;;;;3.95;3.10;;;25.90;48.40;;;;;;5015769;28;20021;-74
2023/06/17 07:20:39;;;;;;;3.65;2.90;;;25.90;48.50;;;;;;5033689;28;20029;-75
2023/06/17 07:23:05;;;;;;;3.55;2.63;;;25.90;48.40;;;;;;5007511;28;20025;-74
2023/06/17 07:25:30;;;;;;;3.40;3.10;;;26.00;48.30;;;;;;5033170;28;20056;-74
2023/06/17 07:28:07;;;;;;;4.28;2.88;;;26.00;48.20;;;;;;5034318;28;20032;-73
2023/06/17 07:30:33;;;;;;;3.10;2.72;;;26.00;48.20;;;;;;5032487;28;20080;-73
2023/06/17 07:32:59;;;;;;;2.90;2.65;;;26.10;48.20;;;;;;5032977;28;20434;-74
2023/06/17 07:35:25;;;;;;;4.68;2.90;;;26.10;48.10;;;;;;5033402;28;20032;-74
2023/06/17 07:37:52;;;;;;;4.70;3.22;;;26.10;48.10;;;;;;5032981;28;20032;-76
2023/06/17 07:40:18;;;;;;;3.20;2.88;;;26.20;48.20;;;;;;5013121;28;20471;-74
2023/06/17 07:42:43;;;;;;;3.05;2.70;;;26.20;48.20;;;;;;5032731;28;20071;-75
2023/06/17 07:45:10;;;;;;;3.85;3.25;;;26.20;48.10;;;;;;5015042;28;20398;-75
2023/06/17 07:47:37;;;;;;;3.75;3.35;;;26.20;48.00;;;;;;5032777;28;20386;-73
2023/06/17 07:50:04;;;;;;;3.13;2.80;;;26.20;48.60;;;;;;5032866;28;20111;-75
2023/06/17 07:52:31;;;;;;;5.82;3.22;;;26.30;47.90;;;;;;5032675;28;20364;-75
2023/06/17 07:54:57;;;;;;;3.25;2.95;;;26.20;47.90;;;;;;5033068;28;20031;-74
2023/06/17 07:57:23;;;;;;;4.43;3.28;;;26.20;48.00;;;;;;5033164;28;20105;-73
2023/06/17 07:59:48;;;;;;;3.45;2.72;;;26.20;48.00;;;;;;5011883;28;20453;-75
2023/06/17 08:02:14;;;;;;;4.03;3.28;;;26.30;48.10;;;;;;5012749;28;20037;-74
2023/06/17 08:04:40;;;;;;;3.95;3.28;;;26.30;48.10;;;;;;5013716;28;20029;-79
2023/06/17 08:07:06;;;;;;;3.95;3.20;;;26.30;48.10;;;;;;5013590;28;20093;-74
2023/06/17 08:09:31;;;;;;;4.82;3.05;;;26.30;48.10;;;;;;5013272;28;20018;-73
2023/06/17 08:11:57;;;;;;;4.28;3.30;;;26.40;48.10;;;;;;5013336;28;20038;-72
2023/06/17 08:14:23;;;;;;;5.22;3.10;;;26.40;48.20;;;;;;5013421;28;20400;-72
2023/06/17 08:16:49;;;;;;;4.80;3.40;;;26.40;48.30;;;;;;4995953;28;20030;-73
2023/06/17 08:19:15;;;;;;;6.05;3.38;;;26.40;48.30;;;;;;5012026;28;20030;-71
2023/06/17 08:21:45;;;;;;;3.33;3.00;;;26.40;48.40;;;;;;5013467;28;20040;-73
2023/06/17 08:24:24;;;;;;;4.97;3.30;;;26.40;48.40;;;;;;5013613;28;20022;-72
2023/06/17 08:26:51;;;;;;;4.03;3.00;;;26.40;48.50;;;;;;5013887;28;20030;-73
2023/06/17 08:29:18;;;;;;;4.30;3.10;;;26.40;48.40;;;;;;5013737;28;20022;-73
2023/06/17 08:31:46;;;;;;;3.55;2.78;;;26.40;48.30;;;;;;5013272;28;20045;-73
2023/06/17 08:34:12;;;;;;;4.30;3.20;;;26.40;48.10;;;;;;5013476;28;20026;-73
2023/06/17 08:36:41;;;;;;;3.88;3.00;;;26.50;48.10;;;;;;5013571;28;20022;-73
2023/06/17 08:39:07;;;;;;;3.15;2.85;;;26.50;48.10;;;;;;5013180;28;20468;-73
2023/06/17 08:41:40;;;;;;;3.22;2.83;;;26.50;48.10;;;;;;5013504;28;20041;-74
2023/06/17 08:44:08;;;;;;;4.55;3.00;;;26.50;48.10;;;;;;5013660;28;20029;-74
2023/06/17 08:46:34;;;;;;;5.43;2.90;;;26.40;48.10;;;;;;4995942;28;20369;-73
2023/06/17 08:49:02;;;;;;;3.50;3.20;;;26.50;48.10;;;;;;5013180;28;20029;-73
2023/06/17 08:51:28;;;;;;;3.58;3.15;;;26.50;48.10;;;;;;5013068;28;20022;-74
2023/06/17 08:53:55;;;;;;;3.10;2.80;;;26.50;48.10;;;;;;5013416;28;20464;-74
2023/06/17 08:56:21;;;;;;;4.00;3.42;;;26.50;48.00;;;;;;5015927;28;20030;-74
2023/06/17 08:58:47;;;;;;;4.50;2.90;;;26.50;47.80;;;;;;5017213;28;20109;-74
2023/06/17 09:01:13;;;;;;;3.30;3.00;;;26.60;47.60;;;;;;5016656;28;20101;-74
2023/06/17 09:03:43;;;;;;;3.28;2.97;;;26.60;47.50;;;;;;5016648;28;20026;-74
2023/06/17 09:06:17;;;;;;;4.53;3.30;;;26.70;47.50;;;;;;5016570;28;20092;-73
2023/06/17 09:08:43;;;;;;;3.90;3.35;;;26.70;47.40;;;;;;5016764;28;20030;-73
2023/06/17 09:11:10;;;;;;;3.78;2.95;;;26.80;47.40;;;;;;5016784;28;20208;-73
2023/06/17 09:13:36;;;;;;;3.53;2.97;;;26.80;47.20;;;;;;5016632;28;20029;-73
2023/06/17 09:16:02;;;;;;;3.35;3.05;;;26.80;47.20;;;;;;5016780;28;20033;-74
2023/06/17 09:18:32;;;;;;;5.28;3.30;;;26.90;47.20;;;;;;5016575;28;20025;-73
2023/06/17 09:20:58;;;;;;;3.65;3.10;;;26.90;47.20;;;;;;4998644;28;20373;-73
2023/06/17 09:23:23;;;;;;;3.20;2.90;;;27.00;47.10;;;;;;5016391;28;20049;-72
2023/06/17 09:26:03;;;;;;;4.22;2.88;;;27.00;47.00;;;;;;5016679;28;20034;-73
2023/06/17 09:28:28;;;;;;;3.08;2.72;;;27.10;46.70;;;;;;5016443;28;20165;-73
2023/06/17 09:30:57;;;;;;;3.40;3.10;;;27.10;46.90;;;;;;5015983;28;20204;-73
2023/06/17 09:33:25;;;;;;;3.28;2.97;;;27.10;46.80;;;;;;5015842;28;20038;-72
2023/06/17 09:36:01;;;;;;;3.38;2.88;;;27.20;46.90;;;;;;4998634;28;20036;-73
2023/06/17 09:38:28;;;;;;;3.10;2.80;;;27.20;46.70;;;;;;5016222;28;20030;-72
2023/06/17 09:40:54;;;;;;;2.75;2.55;;;27.30;46.70;;;;;;5014564;28;20064;-73
2023/06/17 09:43:25;;;;;;;3.13;2.85;;;27.40;46.60;;;;;;5015895;28;20052;-72
2023/06/17 09:46:01;;;;;;;3.05;2.75;;;27.40;46.40;;;;;;5016046;28;20468;-74
2023/06/17 09:48:30;;;;;;;4.20;3.00;;;27.40;46.30;;;;;;5016283;28;20073;-73
2023/06/17 09:50:57;;;;;;;3.35;3.05;;;27.50;46.40;;;;;;5015730;28;20384;-73
2023/06/17 09:53:29;;;;;;;4.30;3.10;;;27.50;46.40;;;;;;5014562;28;20061;-73
2023/06/17 09:55:57;;;;;;;4.53;2.78;;;27.50;46.20;;;;;;4998120;28;20117;-73
2023/06/17 09:58:28;;;;;;;5.30;3.45;;;27.50;46.10;;;;;;5015686;28;20026;-72
2023/06/17 10:01:07;;;;;;;5.10;2.72;;;27.50;46.10;;;;;;5015907;28;20030;-73
2023/06/17 10:03:33;;;;;;;2.88;2.58;;;27.50;45.90;;;;;;4998259;28;20117;-74
2023/06/17 10:06:13;;;;;;;3.20;2.67;;;27.50;45.90;;;;;;5015215;28;20049;-74
2023/06/17 10:08:48;;;;;;;2.70;2.50;;;27.50;45.80;;;;;;5015313;28;20022;-72
2023/06/17 10:11:18;;;;;;;3.63;2.85;;;27.50;45.60;;;;;;4997869;28;20106;-73
2023/06/17 10:13:50;;;;;;;3.80;2.97;;;27.50;45.70;;;;;;5015260;28;20056;-73
2023/06/17 10:16:18;;;;;;;3.03;2.72;;;27.50;45.70;;;;;;5015624;28;20105;-73
2023/06/17 10:18:48;;;;;;;3.97;2.95;;;27.50;45.70;;;;;;5015510;28;20046;-73
2023/06/17 10:21:14;;;;;;;3.30;2.90;;;27.50;45.70;;;;;;5015114;28;20092;-73
2023/06/17 10:23:42;;;;;;;2.80;2.60;;;27.50;45.70;;;;;;5015362;28;20061;-73
2023/06/17 10:26:10;;;;;;;3.28;2.97;;;27.50;45.70;;;;;;5015597;28;20526;-74
2023/06/17 10:28:57;;;;;;;3.53;3.10;;;27.50;45.80;;;;;;5015204;28;20072;-74
2023/06/17 10:31:42;;;;;;;4.20;2.95;;;27.50;45.60;;;;;;5014960;28;20526;-74
2023/06/17 10:34:14;;;;;;;3.20;2.90;;;27.50;45.60;;;;;;5015499;28;20026;-74
2023/06/17 10:36:40;;;;;;;4.28;3.10;;;27.50;45.70;;;;;;5015414;28;20034;-74
2023/06/17 10:39:11;;;;;;;3.50;2.70;;;27.50;45.70;;;;;;5015010;28;20029;-73
2023/06/17 10:41:55;;;;;;;3.08;2.78;;;27.50;45.70;;;;;;5014806;28;20048;-73
2023/06/17 10:44:34;;;;;;;4.22;2.90;;;27.50;45.60;;;;;;5015048;28;20026;-74
2023/06/17 10:47:14;;;;;;;3.53;3.08;;;27.50;45.70;;;;;;5015221;28;20432;-74
2023/06/17 10:49:41;;;;;;;3.38;2.80;;;27.50;45.80;;;;;;5014962;28;20044;-74
2023/06/17 10:52:12;;;;;;;3.25;2.65;;;27.50;45.70;;;;;;5014544;28;20460;-73
2023/06/17 10:54:54;;;;;;;3.90;2.83;;;27.50;45.60;;;;;;5014123;28;20030;-73
2023/06/17 10:57:34;;;;;;;3.90;3.00;;;27.50;45.70;;;;;;4997311;28;20033;-74
2023/06/17 11:00:06;;;;;;;3.13;2.80;;;27.50;45.50;;;;;;5014656;28;20026;-73
2023/06/17 11:02:31;;;;;;;3.47;3.00;;;27.40;45.70;;;;;;4997074;28;20486;-73
2023/06/17 11:04:58;;;;;;;3.05;2.75;;;27.40;45.70;;;;;;5014313;28;20030;-73
2023/06/17 11:07:26;;;;;;;3.25;2.92;;;27.40;45.80;;;;;;5015118;28;20042;-74
2023/06/17 11:09:52;;;;;;;4.50;2.80;;;27.40;45.60;;;;;;5014642;28;20034;-72
2023/06/17 11:12:18;;;;;;;3.50;2.90;;;27.40;45.40;;;;;;5014643;28;20084;-74
2023/06/17 11:14:43;;;;;;;4.22;2.75;;;27.40;45.50;;;;;;5014535;28;20037;-74
2023/06/17 11:17:09;;;;;;;3.35;3.05;;;27.40;45.40;;;;;;5014603;28;20026;-72
2023/06/17 11:19:34;;;;;;;3.88;2.78;;;27.30;45.40;;;;;;5013458;28;20026;-72
2023/06/17 11:22:03;;;;;;;3.17;2.88;;;27.30;45.20;;;;;;5014411;28;20025;-73
2023/06/17 11:24:32;;;;;;;3.00;2.70;;;27.40;45.20;;;;;;5014394;28;20052;-74
2023/06/17 11:26:59;;;;;;;3.10;2.80;;;27.40;45.10;;;;;;4996582;28;20428;-73
2023/06/17 11:29:28;;;;;;;3.50;2.58;;;27.40;45.10;;;;;;5014346;28;20079;-73
2023/06/17 11:31:58;;;;;;;3.92;3.10;;;27.50;44.90;;;;;;5013845;28;20460;-72
2023/06/17 11:34:24;;;;;;;2.90;2.70;;;27.50;44.80;;;;;;4996481;28;20043;-72
2023/06/17 11:36:53;;;;;;;3.72;3.10;;;27.50;44.80;;;;;;5014121;28;20034;-72
2023/06/17 11:39:22;;;;;;;3.35;3.05;;;27.50;44.70;;;;;;5013629;28;20026;-73
2023/06/17 11:41:52;;;;;;;3.03;2.72;;;27.50;44.80;;;;;;5013702;28;20032;-73
2023/06/17 11:44:20;;;;;;;3.55;3.15;;;27.50;44.80;;;;;;4995895;28;20476;-74
2023/06/17 11:46:50;;;;;;;3.25;2.95;;;27.50;44.80;;;;;;4996137;28;20030;-74
2023/06/17 11:49:15;;;;;;;3.88;2.90;;;27.50;44.70;;;;;;5014054;28;20030;-73
2023/06/17 11:51:48;;;;;;;3.22;2.45;;;27.50;44.80;;;;;;5013170;28;20512;-74
2023/06/17 11:54:13;;;;;;;2.58;2.38;;;27.50;44.70;;;;;;5012798;28;20026;-74
2023/06/17 11:56:40;;;;;;;3.30;3.00;;;27.60;44.60;;;;;;5012717;28;20112;-73
2023/06/17 11:59:06;;;;;;;3.45;3.00;;;27.60;44.60;;;;;;4995666;28;20030;-73
2023/06/17 12:01:33;;;;;;;3.08;2.70;;;27.60;44.40;;;;;;4995826;28;20372;-73
2023/06/17 12:03:59;;;;;;;3.15;2.85;;;27.70;44.50;;;;;;5013326;28;20065;-73
2023/06/17 12:06:27;;;;;;;3.10;2.80;;;27.80;44.50;;;;;;5013328;28;20137;-74
2023/06/17 12:09:03;;;;;;;3.15;2.70;;;27.80;44.40;;;;;;5011781;28;20026;-74
2023/06/17 12:11:35;;;;;;;2.97;2.67;;;27.80;44.20;;;;;;4995290;28;20030;-73
2023/06/17 12:14:10;;;;;;;2.90;2.60;;;27.90;44.40;;;;;;5013330;28;20084;-73
2023/06/17 12:16:39;;;;;;;3.13;2.83;;;27.90;44.20;;;;;;4995686;28;20036;-74
2023/06/17 12:19:07;;;;;;;2.70;2.50;;;27.90;44.20;;;;;;5013551;28;20065;-73
2023/06/17 12:21:34;;;;;;;3.03;2.72;;;27.90;44.10;;;;;;5013068;28;20025;-73
2023/06/17 12:24:02;;;;;;;3.58;2.88;;;27.80;44.00;;;;;;4995173;28;20427;-71
2023/06/17 12:26:28;;;;;;;3.08;2.75;;;27.80;44.10;;;;;;4995217;28;20531;-74
2023/06/17 12:28:56;;;;;;;3.88;2.88;;;27.70;44.10;;;;;;5012745;28;20034;-74
2023/06/17 12:31:22;;;;;;;3.38;2.88;;;27.70;44.10;;;;;;5015643;28;20041;-74
2023/06/17 12:33:48;;;;;;;3.33;2.80;;;27.70;44.10;;;;;;5017414;28;20030;-74
2023/06/17 12:36:16;;;;;;;3.28;2.97;;;27.80;44.10;;;;;;5017211;28;20115;-74
2023/06/17 12:38:42;;;;;;;3.30;3.00;;;27.80;44.10;;;;;;5017293;28;20026;-74
2023/06/17 12:41:08;;;;;;;4.75;2.70;;;27.90;44.00;;;;;;5017471;28;20040;-75
2023/06/17 12:43:34;;;;;;;3.30;3.00;;;28.00;43.90;;;;;;5017466;28;20384;-74
2023/06/17 12:46:00;;;;;;;2.97;2.72;;;28.10;43.80;;;;;;4999472;28;20494;-74
2023/06/17 12:48:30;;;;;;;3.05;2.80;;;28.30;43.70;;;;;;4999701;28;20376;-74